sensor_id;sensor_type;location;lat;lon;timestamp;pressure;altitude;pressure_sealevel;temperature;humidity
32452;BME280;45528;52.102;5.242;2024-01-15T00:02:00;99926.0;;;9.06;57.76
32452;BME280;45528;52.102;5.242;2024-01-15T00:03:36;99917.0;;;9.25;57.44
32452;BME280;45528;52.102;5.242;2024-01-15T00:05:12;99920.0;;;9.23;57.44
32452;BME280;45528;52.102;5.242;2024-01-15T00:06:49;99914.0;;;9.23;57.33
32452;BME280;45528;52.102;5.242;2024-01-15T00:11:39;99898.0;;;8.63;58.02
32452;BME280;45528;52.102;5.242;2024-01-15T00:13:16;99905.0;;;8.92;57.83
32452;BME280;45528;52.102;5.242;2024-01-15T00:16:29;99903.0;;;9.03;57.33
32452;BME280;45528;52.102;5.242;2024-01-15T00:18:07;99900.0;;;9.0;57.44
32452;BME280;45528;52.102;5.242;2024-01-15T00:19:43;99897.0;;;8.81;57.7
32452;BME280;45528;52.102;5.242;2024-01-15T00:22:56;99893.0;;;8.94;57.5
32452;BME280;45528;52.102;5.242;2024-01-15T00:26:08;99896.0;;;8.9;57.52
32452;BME280;45528;52.102;5.242;2024-01-15T00:27:44;99890.0;;;8.97;57.59
32452;BME280;45528;52.102;5.242;2024-01-15T00:30:57;99884.0;;;8.91;57.67
32452;BME280;45528;52.102;5.242;2024-01-15T00:32:34;99886.0;;;8.88;57.81
32452;BME280;45528;52.102;5.242;2024-01-15T00:34:10;99880.0;;;8.71;58.2
32452;BME280;45528;52.102;5.242;2024-01-15T00:38:59;99872.0;;;8.82;57.73
32452;BME280;45528;52.102;5.242;2024-01-15T00:40:36;99863.0;;;8.67;57.61
32452;BME280;45528;52.102;5.242;2024-01-15T00:43:50;99865.0;;;8.77;57.62
32452;BME280;45528;52.102;5.242;2024-01-15T00:45:26;99862.0;;;8.85;57.07
32452;BME280;45528;52.102;5.242;2024-01-15T00:47:02;99857.0;;;8.91;56.86
32452;BME280;45528;52.102;5.242;2024-01-15T00:48:39;99852.0;;;8.77;56.55
32452;BME280;45528;52.102;5.242;2024-01-15T00:51:53;99855.0;;;8.77;56.69
32452;BME280;45528;52.102;5.242;2024-01-15T00:53:30;99853.0;;;8.97;56.85
32452;BME280;45528;52.102;5.242;2024-01-15T00:55:08;99842.0;;;8.9;56.7
32452;BME280;45528;52.102;5.242;2024-01-15T00:58:19;99852.0;;;9.07;56.33
32452;BME280;45528;52.102;5.242;2024-01-15T00:59:56;99851.0;;;8.97;56.41
32452;BME280;45528;52.102;5.242;2024-01-15T01:01:32;99855.0;;;9.06;55.88
32452;BME280;45528;52.102;5.242;2024-01-15T01:04:45;99855.0;;;8.97;55.79
32452;BME280;45528;52.102;5.242;2024-01-15T01:06:21;99840.0;;;8.97;55.96
32452;BME280;45528;52.102;5.242;2024-01-15T01:07:57;99837.0;;;8.86;56.05
32452;BME280;45528;52.102;5.242;2024-01-15T01:09:34;99842.0;;;8.64;56.63
32452;BME280;45528;52.102;5.242;2024-01-15T01:12:48;99839.0;;;8.88;56.15
32452;BME280;45528;52.102;5.242;2024-01-15T01:14:24;99841.0;;;8.84;56.3
32452;BME280;45528;52.102;5.242;2024-01-15T01:16:02;99837.0;;;9.01;55.76
32452;BME280;45528;52.102;5.242;2024-01-15T01:19:15;99835.0;;;8.93;55.68
32452;BME280;45528;52.102;5.242;2024-01-15T01:20:51;99837.0;;;8.63;56.1
32452;BME280;45528;52.102;5.242;2024-01-15T01:22:28;99830.0;;;8.42;56.51
32452;BME280;45528;52.102;5.242;2024-01-15T01:25:41;99838.0;;;8.72;56.12
32452;BME280;45528;52.102;5.242;2024-01-15T01:27:17;99837.0;;;8.81;56.35
32452;BME280;45528;52.102;5.242;2024-01-15T01:28:53;99832.0;;;8.96;55.99
32452;BME280;45528;52.102;5.242;2024-01-15T01:30:30;99827.0;;;9.05;55.79
32452;BME280;45528;52.102;5.242;2024-01-15T01:33:43;99832.0;;;9.1;55.76
32452;BME280;45528;52.102;5.242;2024-01-15T01:35:19;99837.0;;;9.17;55.6
32452;BME280;45528;52.102;5.242;2024-01-15T01:36:58;99841.0;;;8.96;56.04
32452;BME280;45528;52.102;5.242;2024-01-15T01:40:10;99840.0;;;8.98;56.18
32452;BME280;45528;52.102;5.242;2024-01-15T01:41:47;99839.0;;;8.84;56.14
32452;BME280;45528;52.102;5.242;2024-01-15T01:43:24;99836.0;;;8.82;56.5
32452;BME280;45528;52.102;5.242;2024-01-15T01:46:37;99826.0;;;8.96;56.02
32452;BME280;45528;52.102;5.242;2024-01-15T01:48:13;99834.0;;;8.93;56.05
32452;BME280;45528;52.102;5.242;2024-01-15T01:49:50;99831.0;;;8.96;55.78
32452;BME280;45528;52.102;5.242;2024-01-15T01:51:27;99837.0;;;9.08;55.74
32452;BME280;45528;52.102;5.242;2024-01-15T01:54:40;99841.0;;;9.25;55.41
32452;BME280;45528;52.102;5.242;2024-01-15T01:56:17;99836.0;;;9.28;54.97
32452;BME280;45528;52.102;5.242;2024-01-15T01:57:54;99836.0;;;9.11;55.31
32452;BME280;45528;52.102;5.242;2024-01-15T02:01:11;99841.0;;;9.33;55.03
32452;BME280;45528;52.102;5.242;2024-01-15T02:02:48;99835.0;;;8.93;55.7
32452;BME280;45528;52.102;5.242;2024-01-15T02:04:26;99843.0;;;8.89;56.14
32452;BME280;45528;52.102;5.242;2024-01-15T02:06:04;99841.0;;;9.25;55.38
32452;BME280;45528;52.102;5.242;2024-01-15T02:09:17;99847.0;;;9.21;55.37
32452;BME280;45528;52.102;5.242;2024-01-15T02:10:54;99850.0;;;9.31;55.14
32452;BME280;45528;52.102;5.242;2024-01-15T02:12:30;99858.0;;;9.31;54.94
32452;BME280;45528;52.102;5.242;2024-01-15T02:15:45;99856.0;;;9.27;55.12
32452;BME280;45528;52.102;5.242;2024-01-15T02:17:22;99834.0;;;8.53;57.01
32452;BME280;45528;52.102;5.242;2024-01-15T02:18:58;99857.0;;;8.9;56.55
32452;BME280;45528;52.102;5.242;2024-01-15T02:22:13;99845.0;;;8.72;57.21
32452;BME280;45528;52.102;5.242;2024-01-15T02:23:49;99844.0;;;8.68;57.82
32452;BME280;45528;52.102;5.242;2024-01-15T02:25:25;99832.0;;;8.74;57.56
32452;BME280;45528;52.102;5.242;2024-01-15T02:27:02;99827.0;;;8.76;57.58
32452;BME280;45528;52.102;5.242;2024-01-15T02:30:15;99837.0;;;8.85;57.59
32452;BME280;45528;52.102;5.242;2024-01-15T02:31:52;99850.0;;;8.73;57.95
32452;BME280;45528;52.102;5.242;2024-01-15T02:33:28;99841.0;;;8.55;58.55
32452;BME280;45528;52.102;5.242;2024-01-15T02:36:42;99850.0;;;8.47;58.52
32452;BME280;45528;52.102;5.242;2024-01-15T02:38:19;99843.0;;;8.72;58.21
32452;BME280;45528;52.102;5.242;2024-01-15T02:39:55;99831.0;;;8.43;58.57
32452;BME280;45528;52.102;5.242;2024-01-15T02:43:08;99853.0;;;8.66;58.78
32452;BME280;45528;52.102;5.242;2024-01-15T02:44:44;99842.0;;;8.52;58.68
32452;BME280;45528;52.102;5.242;2024-01-15T02:46:20;99852.0;;;8.48;59.38
32452;BME280;45528;52.102;5.242;2024-01-15T02:47:57;99847.0;;;8.75;58.76
32452;BME280;45528;52.102;5.242;2024-01-15T02:51:10;99831.0;;;8.96;58.17
32452;BME280;45528;52.102;5.242;2024-01-15T02:52:47;99831.0;;;8.93;58.43
32452;BME280;45528;52.102;5.242;2024-01-15T02:54:23;99831.0;;;8.91;58.05
32452;BME280;45528;52.102;5.242;2024-01-15T02:57:35;99842.0;;;8.77;58.28
32452;BME280;45528;52.102;5.242;2024-01-15T02:59:11;99847.0;;;8.69;58.64
32452;BME280;45528;52.102;5.242;2024-01-15T03:00:47;99835.0;;;8.97;57.72
32452;BME280;45528;52.102;5.242;2024-01-15T03:04:00;99830.0;;;8.88;58.02
32452;BME280;45528;52.102;5.242;2024-01-15T03:05:37;99828.0;;;8.81;58.1
32452;BME280;45528;52.102;5.242;2024-01-15T03:07:16;99817.0;;;8.93;57.44
32452;BME280;45528;52.102;5.242;2024-01-15T03:08:53;99822.0;;;8.96;57.6
32452;BME280;45528;52.102;5.242;2024-01-15T03:12:07;99819.0;;;8.84;58.08
32452;BME280;45528;52.102;5.242;2024-01-15T03:13:43;99818.0;;;8.83;57.96
32452;BME280;45528;52.102;5.242;2024-01-15T03:15:19;99811.0;;;8.66;58.02
32452;BME280;45528;52.102;5.242;2024-01-15T03:18:35;99821.0;;;8.86;57.82
32452;BME280;45528;52.102;5.242;2024-01-15T03:20:12;99816.0;;;8.98;57.52
32452;BME280;45528;52.102;5.242;2024-01-15T03:21:48;99814.0;;;8.83;57.68
32452;BME280;45528;52.102;5.242;2024-01-15T03:25:01;99823.0;;;8.78;57.67
32452;BME280;45528;52.102;5.242;2024-01-15T03:26:38;99816.0;;;8.81;58.04
32452;BME280;45528;52.102;5.242;2024-01-15T03:28:15;99822.0;;;8.57;58.34
32452;BME280;45528;52.102;5.242;2024-01-15T03:29:51;99818.0;;;9.01;58.02
32452;BME280;45528;52.102;5.242;2024-01-15T03:33:04;99821.0;;;9.14;57.42
32452;BME280;45528;52.102;5.242;2024-01-15T03:34:40;99813.0;;;9.09;57.43
32452;BME280;45528;52.102;5.242;2024-01-15T03:36:17;99807.0;;;8.72;57.91
32452;BME280;45528;52.102;5.242;2024-01-15T03:39:29;99817.0;;;9.15;57.56
32452;BME280;45528;52.102;5.242;2024-01-15T03:41:05;99810.0;;;8.82;58.45
32452;BME280;45528;52.102;5.242;2024-01-15T03:42:41;99808.0;;;9.07;58.28
32452;BME280;45528;52.102;5.242;2024-01-15T03:45:53;99810.0;;;8.92;58.7
32452;BME280;45528;52.102;5.242;2024-01-15T03:47:30;99794.0;;;9.15;58.26
32452;BME280;45528;52.102;5.242;2024-01-15T03:49:07;99802.0;;;9.13;58.64
32452;BME280;45528;52.102;5.242;2024-01-15T03:50:44;99802.0;;;9.3;57.94
32452;BME280;45528;52.102;5.242;2024-01-15T03:54:00;99797.0;;;9.43;57.49
32452;BME280;45528;52.102;5.242;2024-01-15T03:55:37;99805.0;;;9.39;57.88
32452;BME280;45528;52.102;5.242;2024-01-15T03:57:13;99790.0;;;9.43;57.58
32452;BME280;45528;52.102;5.242;2024-01-15T04:00:25;99799.0;;;9.48;57.44
32452;BME280;45528;52.102;5.242;2024-01-15T04:02:01;99796.0;;;9.41;57.42
32452;BME280;45528;52.102;5.242;2024-01-15T04:03:37;99789.0;;;9.34;57.75
32452;BME280;45528;52.102;5.242;2024-01-15T04:06:50;99791.0;;;9.52;57.15
32452;BME280;45528;52.102;5.242;2024-01-15T04:08:26;99795.0;;;9.0;58.23
32452;BME280;45528;52.102;5.242;2024-01-15T04:10:03;99784.0;;;9.23;57.61
32452;BME280;45528;52.102;5.242;2024-01-15T04:11:40;99788.0;;;9.33;57.41
32452;BME280;45528;52.102;5.242;2024-01-15T04:14:52;99777.0;;;9.22;57.21
32452;BME280;45528;52.102;5.242;2024-01-15T04:16:28;99786.0;;;9.16;57.39
32452;BME280;45528;52.102;5.242;2024-01-15T04:18:04;99774.0;;;9.24;57.08
32452;BME280;45528;52.102;5.242;2024-01-15T04:21:19;99785.0;;;9.27;56.94
32452;BME280;45528;52.102;5.242;2024-01-15T04:22:55;99772.0;;;9.21;56.79
32452;BME280;45528;52.102;5.242;2024-01-15T04:24:31;99778.0;;;9.33;56.76
32452;BME280;45528;52.102;5.242;2024-01-15T04:27:45;99772.0;;;9.22;56.99
32452;BME280;45528;52.102;5.242;2024-01-15T04:29:21;99774.0;;;9.18;56.92
32452;BME280;45528;52.102;5.242;2024-01-15T04:30:57;99768.0;;;9.02;57.31
32452;BME280;45528;52.102;5.242;2024-01-15T04:32:33;99766.0;;;8.83;57.54
32452;BME280;45528;52.102;5.242;2024-01-15T04:35:45;99759.0;;;9.01;57.14
32452;BME280;45528;52.102;5.242;2024-01-15T04:37:21;99760.0;;;8.92;57.21
32452;BME280;45528;52.102;5.242;2024-01-15T04:38:57;99758.0;;;8.88;57.36
32452;BME280;45528;52.102;5.242;2024-01-15T04:42:10;99753.0;;;8.83;57.36
32452;BME280;45528;52.102;5.242;2024-01-15T04:43:46;99759.0;;;8.73;57.54
32452;BME280;45528;52.102;5.242;2024-01-15T04:45:23;99751.0;;;8.73;57.59
32452;BME280;45528;52.102;5.242;2024-01-15T04:48:36;99748.0;;;8.73;57.4
32452;BME280;45528;52.102;5.242;2024-01-15T04:50:12;99755.0;;;8.35;58.37
32452;BME280;45528;52.102;5.242;2024-01-15T04:51:48;99743.0;;;8.73;57.98
32452;BME280;45528;52.102;5.242;2024-01-15T04:55:01;99749.0;;;8.72;58.18
32452;BME280;45528;52.102;5.242;2024-01-15T04:56:38;99740.0;;;8.47;58.81
32452;BME280;45528;52.102;5.242;2024-01-15T04:58:14;99747.0;;;8.64;59.11
32452;BME280;45528;52.102;5.242;2024-01-15T04:59:52;99753.0;;;8.88;58.79
32452;BME280;45528;52.102;5.242;2024-01-15T05:03:07;99748.0;;;8.91;58.67
32452;BME280;45528;52.102;5.242;2024-01-15T05:04:44;99749.0;;;8.56;59.55
32452;BME280;45528;52.102;5.242;2024-01-15T05:06:20;99747.0;;;8.85;59.19
32452;BME280;45528;52.102;5.242;2024-01-15T05:09:32;99757.0;;;8.81;59.73
32452;BME280;45528;52.102;5.242;2024-01-15T05:11:08;99742.0;;;8.9;59.5
32452;BME280;45528;52.102;5.242;2024-01-15T05:12:44;99756.0;;;8.98;58.93
32452;BME280;45528;52.102;5.242;2024-01-15T05:14:21;99744.0;;;9.11;59.01
32452;BME280;45528;52.102;5.242;2024-01-15T05:17:35;99735.0;;;9.19;58.12
32452;BME280;45528;52.102;5.242;2024-01-15T05:19:11;99747.0;;;9.06;58.52
32452;BME280;45528;52.102;5.242;2024-01-15T05:20:47;99735.0;;;9.08;58.3
32452;BME280;45528;52.102;5.242;2024-01-15T05:24:00;99744.0;;;9.14;58.01
32452;BME280;45528;52.102;5.242;2024-01-15T05:25:36;99726.0;;;9.03;57.83
32452;BME280;45528;52.102;5.242;2024-01-15T05:27:13;99733.0;;;9.14;58.08
32452;BME280;45528;52.102;5.242;2024-01-15T05:30:27;99730.0;;;9.16;57.95
32452;BME280;45528;52.102;5.242;2024-01-15T05:32:04;99734.0;;;9.26;57.57
32452;BME280;45528;52.102;5.242;2024-01-15T05:33:40;99731.0;;;9.14;57.89
32452;BME280;45528;52.102;5.242;2024-01-15T05:36:54;99733.0;;;9.08;58.0
32452;BME280;45528;52.102;5.242;2024-01-15T05:38:31;99737.0;;;9.18;57.8
32452;BME280;45528;52.102;5.242;2024-01-15T05:40:08;99741.0;;;9.21;57.78
32452;BME280;45528;52.102;5.242;2024-01-15T05:41:45;99733.0;;;9.11;58.15
32452;BME280;45528;52.102;5.242;2024-01-15T05:44:58;99743.0;;;9.0;58.39
32452;BME280;45528;52.102;5.242;2024-01-15T05:46:35;99735.0;;;9.15;58.28
32452;BME280;45528;52.102;5.242;2024-01-15T05:48:12;99732.0;;;9.14;58.25
32452;BME280;45528;52.102;5.242;2024-01-15T05:51:25;99733.0;;;9.18;58.16
32452;BME280;45528;52.102;5.242;2024-01-15T05:53:01;99735.0;;;9.23;58.11
32452;BME280;45528;52.102;5.242;2024-01-15T05:54:37;99732.0;;;9.14;58.29
32452;BME280;45528;52.102;5.242;2024-01-15T05:56:14;99728.0;;;9.17;58.17
32452;BME280;45528;52.102;5.242;2024-01-15T05:59:33;99731.0;;;9.18;58.26
32452;BME280;45528;52.102;5.242;2024-01-15T06:01:09;99727.0;;;9.11;58.42
32452;BME280;45528;52.102;5.242;2024-01-15T06:02:46;99731.0;;;9.01;58.9
32452;BME280;45528;52.102;5.242;2024-01-15T06:06:00;99735.0;;;9.19;58.59
32452;BME280;45528;52.102;5.242;2024-01-15T06:07:46;99736.0;;;9.31;58.09
32452;BME280;45528;52.102;5.242;2024-01-15T06:09:22;99741.0;;;9.34;57.55
32452;BME280;45528;52.102;5.242;2024-01-15T06:10:58;99743.0;;;9.21;57.76
32452;BME280;45528;52.102;5.242;2024-01-15T06:14:11;99741.0;;;8.94;57.98
32452;BME280;45528;52.102;5.242;2024-01-15T06:15:47;99755.0;;;8.99;57.59
32452;BME280;45528;52.102;5.242;2024-01-15T06:17:23;99750.0;;;8.98;57.81
32452;BME280;45528;52.102;5.242;2024-01-15T06:20:36;99742.0;;;9.06;57.19
32452;BME280;45528;52.102;5.242;2024-01-15T06:22:12;99741.0;;;9.05;57.03
32452;BME280;45528;52.102;5.242;2024-01-15T06:23:49;99732.0;;;9.0;57.21
32452;BME280;45528;52.102;5.242;2024-01-15T06:27:01;99727.0;;;8.8;57.6
32452;BME280;45528;52.102;5.242;2024-01-15T06:28:37;99723.0;;;8.61;58.08
32452;BME280;45528;52.102;5.242;2024-01-15T06:30:14;99730.0;;;8.52;58.54
32452;BME280;45528;52.102;5.242;2024-01-15T06:31:50;99736.0;;;8.53;58.56
32452;BME280;45528;52.102;5.242;2024-01-15T06:35:05;99738.0;;;8.59;58.48
32452;BME280;45528;52.102;5.242;2024-01-15T06:36:41;99731.0;;;8.64;58.37
32452;BME280;45528;52.102;5.242;2024-01-15T06:38:18;99733.0;;;8.34;59.03
32452;BME280;45528;52.102;5.242;2024-01-15T06:41:31;99728.0;;;8.48;58.82
32452;BME280;45528;52.102;5.242;2024-01-15T06:43:07;99720.0;;;8.4;59.01
32452;BME280;45528;52.102;5.242;2024-01-15T06:44:44;99733.0;;;8.48;58.79
32452;BME280;45528;52.102;5.242;2024-01-15T06:47:58;99733.0;;;8.55;58.84
32452;BME280;45528;52.102;5.242;2024-01-15T06:49:35;99726.0;;;8.51;58.69
32452;BME280;45528;52.102;5.242;2024-01-15T06:51:12;99722.0;;;8.64;58.69
32452;BME280;45528;52.102;5.242;2024-01-15T06:52:56;99724.0;;;8.63;58.75
32452;BME280;45528;52.102;5.242;2024-01-15T06:56:08;99725.0;;;8.61;58.75
32452;BME280;45528;52.102;5.242;2024-01-15T06:57:45;99720.0;;;8.56;58.79
32452;BME280;45528;52.102;5.242;2024-01-15T06:59:22;99719.0;;;8.5;58.87
32452;BME280;45528;52.102;5.242;2024-01-15T07:02:36;99712.0;;;8.48;58.95
32452;BME280;45528;52.102;5.242;2024-01-15T07:04:13;99711.0;;;8.44;59.06
32452;BME280;45528;52.102;5.242;2024-01-15T07:05:49;99709.0;;;8.49;58.97
32452;BME280;45528;52.102;5.242;2024-01-15T07:07:26;99714.0;;;8.48;59.1
32452;BME280;45528;52.102;5.242;2024-01-15T07:10:39;99721.0;;;8.48;59.15
32452;BME280;45528;52.102;5.242;2024-01-15T07:12:16;99735.0;;;8.49;59.25
32452;BME280;45528;52.102;5.242;2024-01-15T07:13:52;99737.0;;;7.8;60.26
32452;BME280;45528;52.102;5.242;2024-01-15T07:17:08;99764.0;;;7.79;61.42
32452;BME280;45528;52.102;5.242;2024-01-15T07:18:45;99760.0;;;8.05;60.78
32452;BME280;45528;52.102;5.242;2024-01-15T07:20:23;99761.0;;;8.03;60.87
32452;BME280;45528;52.102;5.242;2024-01-15T07:22:00;99757.0;;;8.17;60.16
32452;BME280;45528;52.102;5.242;2024-01-15T07:25:12;99753.0;;;8.28;60.01
32452;BME280;45528;52.102;5.242;2024-01-15T07:26:58;99743.0;;;8.27;60.05
32452;BME280;45528;52.102;5.242;2024-01-15T07:28:34;99734.0;;;8.22;59.94
32452;BME280;45528;52.102;5.242;2024-01-15T07:31:50;99739.0;;;8.24;60.06
32452;BME280;45528;52.102;5.242;2024-01-15T07:33:27;99734.0;;;8.45;59.42
32452;BME280;45528;52.102;5.242;2024-01-15T07:35:03;99737.0;;;8.23;60.24
32452;BME280;45528;52.102;5.242;2024-01-15T07:36:40;99738.0;;;8.02;60.27
32452;BME280;45528;52.102;5.242;2024-01-15T07:39:57;99736.0;;;8.48;59.47
32452;BME280;45528;52.102;5.242;2024-01-15T07:41:33;99732.0;;;8.56;59.02
32452;BME280;45528;52.102;5.242;2024-01-15T07:43:10;99730.0;;;8.59;58.99
32452;BME280;45528;52.102;5.242;2024-01-15T07:46:24;99737.0;;;8.56;59.2
32452;BME280;45528;52.102;5.242;2024-01-15T07:48:00;99738.0;;;8.68;58.97
32452;BME280;45528;52.102;5.242;2024-01-15T07:49:37;99747.0;;;8.82;58.56
32452;BME280;45528;52.102;5.242;2024-01-15T07:52:53;99748.0;;;8.76;58.74
32452;BME280;45528;52.102;5.242;2024-01-15T07:54:29;99757.0;;;8.57;58.78
32452;BME280;45528;52.102;5.242;2024-01-15T07:56:05;99759.0;;;8.8;58.67
32452;BME280;45528;52.102;5.242;2024-01-15T07:57:42;99755.0;;;8.89;58.47
32452;BME280;45528;52.102;5.242;2024-01-15T08:00:54;99753.0;;;8.86;58.46
32452;BME280;45528;52.102;5.242;2024-01-15T08:02:30;99749.0;;;8.75;58.73
32452;BME280;45528;52.102;5.242;2024-01-15T08:04:08;99740.0;;;8.72;58.76
32452;BME280;45528;52.102;5.242;2024-01-15T08:07:22;99728.0;;;8.72;58.43
32452;BME280;45528;52.102;5.242;2024-01-15T08:08:59;99738.0;;;8.8;58.5
32452;BME280;45528;52.102;5.242;2024-01-15T08:10:35;99732.0;;;8.56;58.86
32452;BME280;45528;52.102;5.242;2024-01-15T08:13:49;99731.0;;;8.74;58.53
32452;BME280;45528;52.102;5.242;2024-01-15T08:15:26;99731.0;;;8.71;58.52
32452;BME280;45528;52.102;5.242;2024-01-15T08:17:04;99737.0;;;8.78;58.44
32452;BME280;45528;52.102;5.242;2024-01-15T08:18:41;99735.0;;;8.76;58.41
32452;BME280;45528;52.102;5.242;2024-01-15T08:21:55;99739.0;;;8.6;58.65
32452;BME280;45528;52.102;5.242;2024-01-15T08:23:34;99737.0;;;8.74;58.45
32452;BME280;45528;52.102;5.242;2024-01-15T08:25:11;99746.0;;;8.69;58.86
32452;BME280;45528;52.102;5.242;2024-01-15T08:28:24;99743.0;;;8.6;58.68
32452;BME280;45528;52.102;5.242;2024-01-15T08:30:01;99747.0;;;8.39;58.96
32452;BME280;45528;52.102;5.242;2024-01-15T08:31:38;99749.0;;;8.61;59.27
32452;BME280;45528;52.102;5.242;2024-01-15T08:33:14;99736.0;;;8.55;58.88
32452;BME280;45528;52.102;5.242;2024-01-15T08:36:28;99737.0;;;8.63;58.84
32452;BME280;45528;52.102;5.242;2024-01-15T08:38:05;99750.0;;;8.58;59.24
32452;BME280;45528;52.102;5.242;2024-01-15T08:39:41;99758.0;;;8.89;58.67
32452;BME280;45528;52.102;5.242;2024-01-15T08:42:54;99755.0;;;8.69;59.34
32452;BME280;45528;52.102;5.242;2024-01-15T08:44:30;99758.0;;;8.58;59.18
32452;BME280;45528;52.102;5.242;2024-01-15T08:46:06;99758.0;;;8.64;58.89
32452;BME280;45528;52.102;5.242;2024-01-15T08:49:21;99755.0;;;8.63;58.91
32452;BME280;45528;52.102;5.242;2024-01-15T08:50:58;99748.0;;;8.88;58.44
32452;BME280;45528;52.102;5.242;2024-01-15T08:52:35;99741.0;;;8.76;58.54
32452;BME280;45528;52.102;5.242;2024-01-15T08:54:12;99728.0;;;8.36;59.09
32452;BME280;45528;52.102;5.242;2024-01-15T08:57:25;99739.0;;;8.42;58.97
32452;BME280;45528;52.102;5.242;2024-01-15T08:59:01;99736.0;;;8.75;58.7
32452;BME280;45528;52.102;5.242;2024-01-15T09:00:37;99741.0;;;8.81;58.5
32452;BME280;45528;52.102;5.242;2024-01-15T09:03:50;99751.0;;;8.82;58.48
32452;BME280;45528;52.102;5.242;2024-01-15T09:05:28;99759.0;;;8.47;59.25
32452;BME280;45528;52.102;5.242;2024-01-15T09:07:05;99789.0;;;8.64;59.66
32452;BME280;45528;52.102;5.242;2024-01-15T09:10:20;99785.0;;;8.49;59.62
32452;BME280;45528;52.102;5.242;2024-01-15T09:11:57;99755.0;;;8.23;59.65
32452;BME280;45528;52.102;5.242;2024-01-15T09:13:34;99774.0;;;8.3;59.61
32452;BME280;45528;52.102;5.242;2024-01-15T09:15:11;99765.0;;;7.94;60.27
32452;BME280;45528;52.102;5.242;2024-01-15T09:18:25;99773.0;;;8.48;59.29
32452;BME280;45528;52.102;5.242;2024-01-15T09:20:02;99762.0;;;8.44;59.25
32452;BME280;45528;52.102;5.242;2024-01-15T09:21:40;99770.0;;;8.48;59.24
32452;BME280;45528;52.102;5.242;2024-01-15T09:24:53;99770.0;;;8.38;59.5
32452;BME280;45528;52.102;5.242;2024-01-15T09:26:29;99768.0;;;8.22;59.7
32452;BME280;45528;52.102;5.242;2024-01-15T09:28:06;99760.0;;;8.39;59.5
32452;BME280;45528;52.102;5.242;2024-01-15T09:29:43;99761.0;;;8.73;58.92
32452;BME280;45528;52.102;5.242;2024-01-15T09:32:57;99761.0;;;8.81;59.13
32452;BME280;45528;52.102;5.242;2024-01-15T09:34:34;99756.0;;;8.94;58.92
32452;BME280;45528;52.102;5.242;2024-01-15T09:36:10;99777.0;;;9.18;58.42
32452;BME280;45528;52.102;5.242;2024-01-15T09:39:25;99767.0;;;9.18;58.03
32452;BME280;45528;52.102;5.242;2024-01-15T09:41:02;99769.0;;;9.15;58.21
32452;BME280;45528;52.102;5.242;2024-01-15T09:42:39;99770.0;;;9.26;57.75
32452;BME280;45528;52.102;5.242;2024-01-15T09:44:17;99761.0;;;9.02;58.02
32452;BME280;45528;52.102;5.242;2024-01-15T09:47:33;99759.0;;;9.02;58.06
32452;BME280;45528;52.102;5.242;2024-01-15T09:49:10;99758.0;;;8.84;58.3
32452;BME280;45528;52.102;5.242;2024-01-15T09:50:46;99758.0;;;8.98;58.0
32452;BME280;45528;52.102;5.242;2024-01-15T09:54:02;99752.0;;;8.5;58.43
32452;BME280;45528;52.102;5.242;2024-01-15T09:55:39;99757.0;;;8.75;58.45
32452;BME280;45528;52.102;5.242;2024-01-15T09:57:16;99762.0;;;8.96;57.92
32452;BME280;45528;52.102;5.242;2024-01-15T10:00:30;99760.0;;;8.89;58.01
32452;BME280;45528;52.102;5.242;2024-01-15T10:02:12;99763.0;;;8.98;58.33
32452;BME280;45528;52.102;5.242;2024-01-15T10:03:49;99756.0;;;9.07;58.3
32452;BME280;45528;52.102;5.242;2024-01-15T10:05:26;99757.0;;;9.26;58.62
32452;BME280;45528;52.102;5.242;2024-01-15T10:08:47;99761.0;;;9.14;58.6
32452;BME280;45528;52.102;5.242;2024-01-15T10:10:24;99757.0;;;9.48;58.85
32452;BME280;45528;52.102;5.242;2024-01-15T10:12:00;99755.0;;;9.43;59.53
32452;BME280;45528;52.102;5.242;2024-01-15T10:13:37;99758.0;;;9.56;58.76
32452;BME280;45528;52.102;5.242;2024-01-15T10:16:52;99756.0;;;9.72;58.98
32452;BME280;45528;52.102;5.242;2024-01-15T10:18:29;99757.0;;;9.76;58.49
32452;BME280;45528;52.102;5.242;2024-01-15T10:20:09;99752.0;;;9.36;58.76
32452;BME280;45528;52.102;5.242;2024-01-15T10:23:22;99755.0;;;9.84;58.28
32452;BME280;45528;52.102;5.242;2024-01-15T10:24:58;99755.0;;;9.66;58.69
32452;BME280;45528;52.102;5.242;2024-01-15T10:26:35;99755.0;;;9.63;58.58
32452;BME280;45528;52.102;5.242;2024-01-15T10:29:49;99762.0;;;9.47;58.78
32452;BME280;45528;52.102;5.242;2024-01-15T10:31:26;99757.0;;;9.31;58.91
32452;BME280;45528;52.102;5.242;2024-01-15T10:33:04;99748.0;;;9.6;58.62
32452;BME280;45528;52.102;5.242;2024-01-15T10:34:40;99759.0;;;9.92;58.93
32452;BME280;45528;52.102;5.242;2024-01-15T10:37:54;99760.0;;;9.94;58.7
32452;BME280;45528;52.102;5.242;2024-01-15T10:39:30;99758.0;;;9.97;58.09
32452;BME280;45528;52.102;5.242;2024-01-15T10:41:07;99764.0;;;9.64;58.63
32452;BME280;45528;52.102;5.242;2024-01-15T10:44:21;99757.0;;;9.58;58.45
32452;BME280;45528;52.102;5.242;2024-01-15T10:45:59;99742.0;;;9.61;57.81
32452;BME280;45528;52.102;5.242;2024-01-15T10:47:36;99750.0;;;9.39;58.22
32452;BME280;45528;52.102;5.242;2024-01-15T10:49:13;99748.0;;;9.24;58.96
32452;BME280;45528;52.102;5.242;2024-01-15T10:52:27;99768.0;;;9.71;58.58
32452;BME280;45528;52.102;5.242;2024-01-15T10:54:08;99771.0;;;9.77;58.53
32452;BME280;45528;52.102;5.242;2024-01-15T10:55:46;99768.0;;;9.61;58.72
32452;BME280;45528;52.102;5.242;2024-01-15T10:59:03;99777.0;;;9.97;58.05
32452;BME280;45528;52.102;5.242;2024-01-15T11:00:39;99775.0;;;9.89;57.94
32452;BME280;45528;52.102;5.242;2024-01-15T11:02:17;99786.0;;;9.76;58.49
32452;BME280;45528;52.102;5.242;2024-01-15T11:03:55;99793.0;;;9.8;58.57
32452;BME280;45528;52.102;5.242;2024-01-15T11:07:13;99788.0;;;9.89;57.75
32452;BME280;45528;52.102;5.242;2024-01-15T11:08:50;99782.0;;;9.88;57.92
32452;BME280;45528;52.102;5.242;2024-01-15T11:10:41;99787.0;;;9.73;58.06
32452;BME280;45528;52.102;5.242;2024-01-15T11:12:17;99788.0;;;9.97;57.92
32452;BME280;45528;52.102;5.242;2024-01-15T11:15:31;99797.0;;;9.63;58.19
32452;BME280;45528;52.102;5.242;2024-01-15T11:17:08;99792.0;;;9.83;57.96
32452;BME280;45528;52.102;5.242;2024-01-15T11:19:01;99806.0;;;9.56;58.44
32452;BME280;45528;52.102;5.242;2024-01-15T11:20:38;99805.0;;;9.32;58.94
32452;BME280;45528;52.102;5.242;2024-01-15T11:24:34;99805.0;;;9.32;58.36
32452;BME280;45528;52.102;5.242;2024-01-15T11:26:27;99805.0;;;9.6;58.03
32452;BME280;45528;52.102;5.242;2024-01-15T11:28:47;99811.0;;;9.68;57.85
32452;BME280;45528;52.102;5.242;2024-01-15T11:30:25;99799.0;;;9.66;58.32
32452;BME280;45528;52.102;5.242;2024-01-15T11:32:03;99798.0;;;9.77;58.01